メインページ
METAR-TAF:

METAR-TAF

空港 :

福島空港

郡山, 日本

緯度: 37-24N, 経度: 140-23E, 海抜: 372m

現時点の気象観測

当レポートは44分前の08:00(UTC)に作成
の風 4kt
気温 25°C
湿度 79%
気圧 1014 hPa
視程10km以上
高度1500ftの雲はほとんどない
高度2000ftの千切れ雲あり

METAR: RJSF 200800Z 18004KT 9999 FEW015 BKN020 25/21 Q1014

時間: 17:44 (08:44 UTC)

予報

当レポートは3時間38分前の05:06(UTC)に作成
予報は20日の 06時(UTC)から 21日の 12時(UTC)まで有効
の風 8kt
視程10km以上
高度3000ftの雲はほとんどない
高度5000ftの雲は散在している
20日の 12時(UTC)から 20日の 14時(UTC)まで徐々に
高度500ftの雲はほとんどない
高度800ftの千切れ雲あり
高度1500ftの千切れ雲あり
20日の 14時(UTC)から 20日の 21時(UTC)まで一時的に
視程: 4000m
高度200ftの雲はほとんどない
高度500ftの千切れ雲あり
高度800ftの千切れ雲あり
20日の 21時(UTC)から 21日の 00時(UTC)まで徐々に
高度2000ftの雲はほとんどない
高度4000ftの雲は散在している

TAF: RJSF 200506Z 2006/2112 18008KT 9999 FEW030 SCT050 BECMG 2012/2014 FEW005 BKN008 BKN015 TEMPO 2014/2021 4000 BR FEW002 BKN005 BKN008 BECMG 2021/2100 FEW020 SCT040

4,000以上の空港の気象観測と天気予報(METAR報とTAF報)

利用可能な観測所は地図上に黄色い丸と赤い丸で示す。

丸の上にカーソルを重ねると観測所名を参照できる。

次にクリックすると気象観測と天気予報を参照できる。

マップの切り替え:黒色「×」印の緑ボタンをクリックして拡大、「-」印の緑ボタンをクリックして縮小、緑色の三角印をクリックして隣りの地図に切り替え


METAR-TAF: